AirNav   Bose ProFlight Series 2 Headset
 
 1131 users online  

13GA Oak Ridge Plantation Airport
Sylvester, Georgia, USA

GOING TO SYLVESTER?


FAA INFORMATION EFFECTIVE 26 MARCH 2020

Location

FAA Identifier: 13GA
Lat/Long: 31-21-59.6590N 083-45-17.6280W
31-21.994317N 083-45.293800W
31.3665719,-83.7548967
(estimated)
Elevation: 350 ft. / 107 m (estimated)
Variation: 02W (1985)
From city: 13 miles SE of SYLVESTER, GA
Time zone: UTC -4 (UTC -5 during Standard Time)
Zip code: 31789

Airport Operations

Airport use: Private use. Permission required prior to landing
Activation date: 06/1983
Control tower: no
ARTCC: JACKSONVILLE CENTER
FSS: MACON FLIGHT SERVICE STATION
Attendance: UNATNDD
Wind indicator: yes
Segmented circle: no

Airport Communications

UNICOM: 122.8
WX AWOS-3PT at TMA (14 nm E): 118.525 (229-386-8937)
WX AWOS-3PT at MGR (17 nm S): 118.925 (229-890-5320)

Nearby radio navigation aids

VOR radial/distance  VOR name  Freq  Var
IFMr256/(14.1)TIFT MYERS VOR112.5001W
PZDr124/32.5PECAN VOR/DME116.1002W

 
NDB name  Hdg/Dist  Freq  Var  ID
PATON014/24.824505WGTP --. - .--.
CAMILLA075/26.436905WCXU -.-. -..- ..-
FITZGERALD243/28.036205WSUR ... ..- .-.
CAIDY040/35.433804WCYR -.-. -.-- .-.
CONEY178/38.340006WOHY --- .... -.--

Airport Services

Runway Information

Runway 16/34

Dimensions: 3400 x 150 ft. / 1036 x 46 m
Surface: turf
RUNWAY 16  RUNWAY 34
Traffic pattern: leftleft
Obstructions: 75 ft. trees, 100 ft. from runway75 ft. trees, 250 ft. from runway

Airport Ownership and Management from official FAA records

Ownership: Privately-owned
Owner: C. LAIRD/N. CROSSWELL
ROUTE 1 BOX 1000
SUMNER, GA 31789
Phone 912-776-4900
Manager: JOHN COX
1684 WRIGHTS CHAPEL ROAD
SUMNER, GA 31789
Phone 229-776-9643

Airport Operational Statistics

Aircraft based on the field: 1
Multi engine airplanes: 1
    

Additional Remarks

FOR CD CTC VALDOSTA APCH AT 229-257-2207, WHEN APCH CLSD CTC JACKSONVILLE ARTCC AT 904-845-1592.

Instrument Procedures

There are no published instrument procedures at 13GA.

Some nearby airports with instrument procedures:

KTMA - Henry Tift Myers Airport (14 nm E)
KMGR - Moultrie Municipal Airport (17 nm S)
75J - Turner County Airport (20 nm N)
15J - Cook County Airport (21 nm SE)
KABY - Southwest Georgia Regional Airport (25 nm NW)
 
Loc | Ops | Rwys | IFR | FBO | Links
Com | Nav | Svcs | Stats | Notes
Area around 13GA (Oak Ridge Plantation Airport)
 
Road maps at: MapQuest Bing Google
 
Aerial photo
WARNING: Photo may not be current or correct
Aerial photo of 13GA (Oak Ridge Plantation Airport)
Photo courtesy of AirNav, LLC
Photo taken 07-May-2017
looking southeast.

Do you have a better or more recent aerial photo of Oak Ridge Plantation Airport that you would like to share? If so, please send us your photo.

 
Sectional chart

 
Airport distance calculator
Flying to Oak Ridge Plantation Airport? Find the distance to fly.

From to 13GA

Sunrise and sunset
Times for 30-Mar-2020
 Local
(UTC-4)
 Zulu
(UTC)
Morning civil twilight07:0211:02
Sunrise07:2611:26
Sunset19:5323:53
Evening civil twilight20:1700:17

Current date and time
Zulu (UTC)  30-Mar-2020 18:29:58
Local (UTC-4)  30-Mar-2020 14:29:58
 
METAR
KTMA 
14nm E 
301815Z AUTO 32006KT 10SM CLR 27/08 A3009 RMK AO2 T02680081
KMGR 
17nm S 
301815Z AUTO 00000KT 10SM CLR 28/08 A3009 RMK AO2
KABY 
25nm NW 
301753Z 01004KT 10SM CLR 28/07 A3012 RMK AO2 SLP197 T02830072 10283 20156 58022
KCXU 
26nm W 
301815Z AUTO 00000KT 10SM CLR 28/08 A3010 RMK AO1 T02790076
TAF
KABY 
25nm NW 
301738Z 3018/3118 VRB03KT P6SM FEW200 FM302300 00000KT P6SM BKN180 FM311500 18008KT P6SM BKN050 PROB30 3115/3116 4SM TSRA OVC025CB FM311600 20015G25KT P6SM BKN050 PROB30 3116/3118 4SM TSRA OVC025CB
NOTAMs
Click for the latest NOTAMs
NOTAMs are issued by the DoD/FAA and will open in a separate window not controlled by AirNav.

 

 
 

Would you like to see your business listed on this page?

 If your business provides an interesting product or service to pilots, flight crews, aircraft, or users of the Oak Ridge Plantation Airport, you should consider listing it here.  To start the listing process, click on the button below
 
Add a business
 

Other Pages about Oak Ridge Plantation Airport

Update a link
 
Copyright © AirNav, LLC. All rights reserved. Privacy Policy  Contact